Flight Track Log - Related Links

Times and Time Zones

All times are in EDT time to prevent confusion due to time zone crossing. See the N280MK flight status page for this flight to view local times or setup timezone preferences in your user account.


Time Position Orientation Groundspeed Altitude Reporting Facility
EDT Latitude Longitude Course Direction KTS MPH feet Rate Location/Type
Wed 04:20:51 PM 46.5931 -94.3717 173° South 102 117 4,300  Level Minneapolis Center
Wed 04:21:53 PM 46.5675 -94.3667 172° South 99 114 4,700 336 Climbing Minneapolis Center
Wed 04:22:56 PM 46.5361 -94.3533 164° South 97 112 5,000 144 Climbing Minneapolis Center
Wed 04:23:58 PM 46.5100 -94.3394 160° South 97 112 5,000  Level Minneapolis Center
Wed 04:24:00 PM 46.5357 -94.3453 172° South  Level Estimated
Wed 04:25:00 PM 46.5042 -94.3387 172° South  Level FlightAware Approximate
Wed 04:25:00 PM 46.4778 -94.3242 162° South 105 121 5,000  Level Minneapolis Center
Wed 04:26:02 PM 46.4450 -94.3086 162° South 114 131 5,000 48 Level Minneapolis Center
Wed 04:27:04 PM 46.4142 -94.2953 163° South 117 135 5,100  Climbing Minneapolis Center
Wed 04:28:06 PM 46.3836 -94.2850 167° South 116 133 5,000 -48 Descending Minneapolis Center
Wed 04:29:08 PM 46.3461 -94.2814 176° South 115 132 5,000 48 Level Minneapolis Center
Wed 04:30:10 PM 46.3169 -94.2794 177° South 111 128 5,100  Climbing Minneapolis Center
Wed 04:31:24 PM 46.2867 -94.2767 176° South 109 125 5,000 -44 Descending Minneapolis Center
Wed 04:32:27 PM 46.2500 -94.2667 169° South 109 125 5,000 48 Level Minneapolis Center
Wed 04:33:29 PM 46.2167 -94.2578 170° South 114 131 5,100  Climbing Minneapolis Center
Wed 04:34:31 PM 46.1794 -94.2522 174° South 115 132 5,000  Descending Minneapolis Center
Wed 04:35:33 PM 46.1481 -94.2456 172° South 114 131 5,100  Climbing Minneapolis Center
Wed 04:36:35 PM 46.1164 -94.2417 175° South 114 131 5,000 -48 Descending Minneapolis Center
Wed 04:37:38 PM 46.0825 -94.2353 173° South 117 135 5,000  Level Minneapolis Center
Wed 04:38:40 PM 46.0511 -94.2314 175° South 115 132 5,000  Level Minneapolis Center
Wed 04:39:42 PM 46.0189 -94.2244 171° South 117 135 5,000  Level Minneapolis Center
Wed 04:40:44 PM 45.9822 -94.2178 173° South 112 129 5,000  Level Minneapolis Center
Wed 04:41:46 PM 45.9514 -94.2139 175° South 113 130 5,000 -48 Level Minneapolis Center
Wed 04:42:48 PM 45.9219 -94.2044 167° South 111 128 4,900 -97 Descending Minneapolis Center
Wed 04:43:50 PM 45.8922 -94.1972 170° South 109 125 4,800  Descending Minneapolis Center
Wed 04:44:52 PM 45.8603 -94.1939 176° South 111 128 4,900 48 Climbing Minneapolis Center
Wed 04:45:54 PM 45.8289 -94.1897 175° South 112 129 4,900  Level Minneapolis Center
Wed 04:46:56 PM 45.7911 -94.1797 170° South 114 131 4,900 -48 Level Minneapolis Center
Wed 04:47:59 PM 45.7597 -94.1747 174° South 114 131 4,800 -48 Descending Minneapolis Center
Wed 04:49:01 PM 45.7269 -94.1728 178° South 115 132 4,800 48 Level Minneapolis Center
Wed 04:50:03 PM 45.6964 -94.1678 173° South 113 130 4,900 97 Climbing Minneapolis Center
Wed 04:51:05 PM 45.6633 -94.1647 176° South 115 132 5,000  Climbing Minneapolis Center
Wed 04:52:07 PM 45.6311 -94.1581 172° South 117 135 4,900 -48 Descending Minneapolis Center
Wed 04:53:09 PM 45.5917 -94.1511 173° South 120 138 4,900 -48 Level Minneapolis Center
Wed 04:54:11 PM 45.5633 -94.1597 192° South 107 123 4,800  Descending Minneapolis Center
Wed 04:55:13 PM 45.5344 -94.1672 190° South 106 122 4,900 48 Climbing Minneapolis Center
Wed 04:56:15 PM 45.5056 -94.1739 189° South 106 122 4,900  Level Minneapolis Center
Wed 04:57:17 PM 45.4750 -94.1803 188° South 111 128 4,900  Level Minneapolis Center
Wed 04:58:19 PM 45.4392 -94.1889 190° South 110 127 4,900  Level Minneapolis Center
Wed 04:59:22 PM 45.4083 -94.1783 166° South 117 135 4,900 -48 Level Minneapolis Center
Wed 05:00:24 PM 45.3761 -94.1750 176° South 116 133 4,800  Descending Minneapolis Center
Wed 05:01:26 PM 45.3431 -94.1692 173° South 118 136 4,900 48 Climbing Minneapolis Center
Wed 05:02:28 PM 45.3119 -94.1592 167° South 117 135 4,900  Level Minneapolis Center
Wed 05:03:30 PM 45.2817 -94.1539 173° South 112 129 4,900  Level Minneapolis Center
Wed 05:04:32 PM 45.2433 -94.1461 172° South 116 133 4,900  Level Minneapolis Center
Wed 05:05:34 PM 45.2103 -94.1364 168° South 121 139 4,900  Level Minneapolis Center
Wed 05:06:36 PM 45.1789 -94.1317 174° South 116 133 4,900  Level Minneapolis Center
Wed 05:07:38 PM 45.1486 -94.1208 166° South 115 132 4,900  Level Minneapolis Center
Wed 05:08:40 PM 45.1169 -94.1167 175° South 115 132 4,900  Level Minneapolis Center
Wed 05:09:42 PM 45.0775 -94.1086 172° South 120 138 4,900  Level Minneapolis Center
Wed 05:10:44 PM 45.0467 -94.1000 169° South 116 133 4,900  Level Minneapolis Center
Wed 05:11:46 PM 45.0144 -94.0917 170° South 118 136 4,900  Level Minneapolis Center
Wed 05:12:49 PM 44.9819 -94.0881 176° South 116 133 4,900  Level Minneapolis Center
Wed 05:13:51 PM 44.9503 -94.0839 175° South 115 132 4,900  Level Minneapolis Center
Wed 05:14:53 PM 44.9183 -94.0711 164° South 119 137 4,900  Level Minneapolis Center
Wed 05:15:55 PM 44.8789 -94.0697 179° South 120 138 4,900 -48 Level Minneapolis Center
Wed 05:16:57 PM 44.8478 -94.0578 165° South 118 136 4,800  Descending Minneapolis Center
Wed 05:17:59 PM 44.8167 -94.0483 168° South 115 132 4,900 48 Climbing Minneapolis Center
Wed 05:19:01 PM 44.7864 -94.0389 168° South 114 131 4,900  Level Minneapolis Center
Wed 05:20:03 PM 44.7550 -94.0294 168° South 115 132 4,900  Level Minneapolis Center
Wed 05:21:05 PM 44.7244 -94.0142 160° South 117 135 4,900  Level Minneapolis Center
Wed 05:22:07 PM 44.6878 -93.9972 162° South 117 135 4,900  Level Minneapolis Center
Wed 05:23:09 PM 44.6561 -93.9897 170° South 118 136 4,900 -48 Level Minneapolis Center
Wed 05:24:12 PM 44.6236 -93.9803 168° South 120 138 4,800 -48 Descending Minneapolis Center
Wed 05:25:14 PM 44.5931 -93.9742 172° South 113 130 4,800 48 Level Minneapolis Center
Wed 05:26:16 PM 44.5608 -93.9678 172° South 116 133 4,900 48 Climbing Minneapolis Center
Wed 05:27:18 PM 44.5231 -93.9594 171° South 115 132 4,900 -48 Level Minneapolis Center
Wed 05:28:20 PM 44.4922 -93.9547 174° South 112 129 4,800 -48 Descending Minneapolis Center
Wed 05:29:22 PM 44.4606 -93.9475 171° South 114 131 4,800  Level Minneapolis Center
Wed 05:30:24 PM 44.4308 -93.9442 175° South 109 125 4,800 48 Level Minneapolis Center
Wed 05:31:26 PM 44.3994 -93.9397 174° South 113 130 4,900 48 Climbing Minneapolis Center
Wed 05:32:28 PM 44.3617 -93.9314 171° South 117 135 4,900  Level Minneapolis Center
Wed 05:33:30 PM 44.3300 -93.9283 176° South 114 131 4,900  Level Minneapolis Center
Wed 05:34:45 PM 44.2897 -93.9219 174° South 122 140 4,900 -307 Level Minneapolis Center
Wed 05:35:47 PM 44.2589 -93.9186 176° South 113 130 4,200 -677 Descending Minneapolis Center
Wed 05:36:49 PM 44.2261 -93.9131 173° South 117 135 3,500 -677 Descending Minneapolis Center

Login

Don't have an account? Register now (free) for customized features, flight alerts, and more!